Ridgeway, Missouri
Current Conditions -  °F | °C
As of 9:53 AM on Wednesday 28 Jan 2015 (Local Time) from KLWD Reporting Station
Clear Clear  
Wind Chill: 26°   Ceiling: Unl
Heat Index: 36°   Visibility: 9mi
Dew Point: 31°   Wind: 18mph
Humidity: 82%   Direction: 140°SE
Pressure: 29.92"   Gusts: 25mph
Location:  40.38°N, 93.94°W
Report Text: KLWD 281553Z AUTO 14016G22KT 9SM CLR 02/M01 A2992 RMK AO2 SLP140 T00221006
Loading
Personal Weather Stations






























Interactive Weather Map New forecast layout! Learn more

10-Day Weather Forecast

Advertisements
Track Severe Weather on mobile